Time;durP1;ratioP1;P1;durP2;ratioP2;P2;SDS_P1;SDS_P2;PMS_P1;PMS_P2;Temp;Humidity;BMP_temperature;BMP_pressure;BME280_temperature;BME280_humidity;BME280_pressure;Samples;Min_cycle;Max_cycle;Signal;HPM_P1;HPM_P2
2022/09/18 00:02:42;;;;;;;5.53;2.40;;;11.10;99.90;;;;;;10552501;28;20199;-81
2022/09/18 00:08:04;;;;;;;4.53;1.60;;;11.20;99.90;;;;;;10551158;28;20529;-82
2022/09/18 00:13:25;;;;;;;5.93;2.10;;;11.20;99.90;;;;;;10551038;28;20389;-80
2022/09/18 00:18:47;;;;;;;4.07;2.07;;;11.20;99.90;;;;;;10529865;28;20231;-81
2022/09/18 00:24:09;;;;;;;3.13;1.60;;;11.20;99.90;;;;;;10514728;28;20227;-81
2022/09/18 00:29:30;;;;;;;5.90;2.30;;;11.20;99.90;;;;;;10550007;28;20223;-80
2022/09/18 00:34:51;;;;;;;6.30;2.00;;;11.20;99.90;;;;;;10550080;28;20430;-80
2022/09/18 00:40:14;;;;;;;5.43;1.80;;;11.20;99.90;;;;;;10550238;28;20192;-80
2022/09/18 00:45:35;;;;;;;3.57;1.70;;;11.30;99.90;;;;;;10548812;28;20195;-80
2022/09/18 00:50:56;;;;;;;7.17;2.97;;;11.30;99.90;;;;;;10549423;28;20306;-80
2022/09/18 00:56:18;;;;;;;4.87;2.30;;;11.30;99.90;;;;;;10549011;28;20272;-81
2022/09/18 01:01:40;;;;;;;6.07;2.23;;;11.30;99.90;;;;;;10549285;28;20200;-86
2022/09/18 01:07:46;;;;;;;9.00;3.03;;;11.20;99.90;;;;;;10549125;28;20227;-82
2022/09/18 01:13:52;;;;;;;5.23;2.80;;;11.20;99.90;;;;;;10547991;28;20528;-81
2022/09/18 01:19:45;;;;;;;3.07;2.60;;;11.20;99.90;;;;;;10548205;28;20236;-82
2022/09/18 01:25:25;;;;;;;4.03;2.70;;;11.20;99.90;;;;;;10545386;28;20243;-82
2022/09/18 01:30:49;;;;;;;5.70;3.27;;;11.20;99.90;;;;;;10547860;28;20284;-81
2022/09/18 01:36:15;;;;;;;5.03;3.00;;;11.30;99.90;;;;;;10561221;28;20194;-82
2022/09/18 01:41:41;;;;;;;4.07;2.67;;;11.20;99.90;;;;;;10547750;28;20203;-81
2022/09/18 01:47:09;;;;;;;4.57;2.80;;;11.30;99.90;;;;;;10548150;28;20204;-81
2022/09/18 01:52:37;;;;;;;5.07;2.60;;;11.30;99.90;;;;;;10547342;28;20198;-82
2022/09/18 01:58:20;;;;;;;4.53;3.03;;;11.40;99.90;;;;;;10532861;28;20275;-81
2022/09/18 02:03:47;;;;;;;5.03;3.20;;;11.40;99.90;;;;;;10511872;28;20221;-81
2022/09/18 02:09:10;;;;;;;5.10;3.13;;;11.50;99.90;;;;;;10544717;28;20229;-81
2022/09/18 02:14:37;;;;;;;5.43;3.10;;;11.50;99.90;;;;;;10546727;28;20202;-80
2022/09/18 02:20:24;;;;;;;4.37;3.07;;;11.50;99.90;;;;;;10550515;28;20190;-80
2022/09/18 02:25:56;;;;;;;5.30;3.13;;;11.60;99.90;;;;;;10546812;28;20246;-84
2022/09/18 02:31:19;;;;;;;3.47;2.50;;;11.50;99.90;;;;;;10546484;28;20241;-81
2022/09/18 02:37:18;;;;;;;4.80;3.07;;;11.50;99.90;;;;;;10545814;28;20195;-81
2022/09/18 02:42:39;;;;;;;5.40;3.30;;;11.50;99.90;;;;;;10546451;28;20400;-83
2022/09/18 02:48:29;;;;;;;3.63;2.53;;;11.50;99.90;;;;;;10560876;28;20289;-82
2022/09/18 02:54:09;;;;;;;4.90;2.60;;;11.50;99.90;;;;;;10545917;28;20225;-84
2022/09/18 02:59:40;;;;;;;3.37;2.60;;;11.60;99.90;;;;;;10560273;28;20199;-81
2022/09/18 03:05:06;;;;;;;2.87;2.43;;;11.60;99.90;;;;;;10545604;28;20234;-81
2022/09/18 03:10:35;;;;;;;8.33;3.17;;;11.60;99.90;;;;;;10532357;28;20230;-82
2022/09/18 03:15:57;;;;;;;10.00;6.60;;;11.60;99.90;;;;;;10545926;28;20245;-84
2022/09/18 03:21:19;;;;;;;5.10;2.90;;;11.60;99.90;;;;;;10558848;28;20208;-84
2022/09/18 03:26:43;;;;;;;3.43;2.27;;;11.60;99.90;;;;;;10538423;28;20201;-80
2022/09/18 03:32:05;;;;;;;6.67;3.10;;;11.60;99.90;;;;;;10567441;28;20229;-83
2022/09/18 03:37:34;;;;;;;4.30;2.97;;;11.50;99.90;;;;;;10566819;28;20193;-83
2022/09/18 03:42:58;;;;;;;6.13;3.20;;;11.50;99.90;;;;;;10553029;28;20199;-83
2022/09/18 03:48:20;;;;;;;4.17;2.50;;;11.50;99.90;;;;;;10552546;28;20229;-81
2022/09/18 03:53:44;;;;;;;4.47;2.70;;;11.50;99.90;;;;;;10566677;28;20193;-81
2022/09/18 03:59:19;;;;;;;5.20;2.63;;;11.50;99.90;;;;;;10551887;28;20243;-82
2022/09/18 04:04:43;;;;;;;2.90;2.30;;;11.50;99.90;;;;;;10565749;28;20475;-82
2022/09/18 04:10:11;;;;;;;4.63;2.20;;;11.50;99.90;;;;;;10552557;28;20274;-81
2022/09/18 04:15:32;;;;;;;4.87;2.33;;;11.50;99.90;;;;;;10551170;28;20214;-82
2022/09/18 04:20:54;;;;;;;4.60;2.43;;;11.50;99.90;;;;;;10536855;28;20284;-84
2022/09/18 04:26:16;;;;;;;4.20;2.70;;;11.50;99.90;;;;;;10532925;28;20192;-82
2022/09/18 04:31:44;;;;;;;5.63;2.10;;;11.50;99.90;;;;;;10551921;28;20261;-83
2022/09/18 04:37:09;;;;;;;3.13;2.37;;;11.50;99.90;;;;;;10562583;28;20200;-81
2022/09/18 04:42:32;;;;;;;3.00;2.10;;;11.50;99.90;;;;;;10550620;28;20191;-80
2022/09/18 04:47:54;;;;;;;3.13;2.13;;;11.60;99.90;;;;;;10559534;28;20223;-82
2022/09/18 04:53:18;;;;;;;3.97;1.83;;;11.60;99.90;;;;;;10550660;28;20194;-84
2022/09/18 04:58:39;;;;;;;1.83;1.50;;;11.60;99.90;;;;;;10549711;28;20267;-81
2022/09/18 05:04:01;;;;;;;4.20;2.30;;;11.60;99.90;;;;;;10549310;28;20241;-80
2022/09/18 05:09:35;;;;;;;6.53;2.50;;;11.60;99.90;;;;;;10548507;28;20224;-83
2022/09/18 05:14:58;;;;;;;3.17;2.20;;;11.70;99.90;;;;;;10563714;28;20199;-80
2022/09/18 05:20:21;;;;;;;5.70;2.80;;;11.60;99.90;;;;;;10553190;28;20201;-81
2022/09/18 05:25:42;;;;;;;4.57;2.47;;;11.70;99.90;;;;;;10548373;28;20274;-80
2022/09/18 05:31:04;;;;;;;3.83;2.60;;;11.70;99.90;;;;;;10561515;28;20417;-79
2022/09/18 05:36:32;;;;;;;2.90;2.43;;;11.60;99.90;;;;;;10548030;28;20221;-83
2022/09/18 05:41:53;;;;;;;3.60;2.97;;;11.70;99.90;;;;;;10563453;28;20271;-82
2022/09/18 05:47:14;;;;;;;6.10;3.40;;;11.70;99.90;;;;;;10547876;28;20215;-86
2022/09/18 05:52:37;;;;;;;3.83;3.27;;;11.70;99.90;;;;;;10548242;28;20199;-83
2022/09/18 05:58:02;;;;;;;5.90;4.00;;;11.70;99.90;;;;;;10547348;28;20210;-82
2022/09/18 06:03:24;;;;;;;11.13;6.23;;;11.80;99.90;;;;;;10506809;28;20285;-83
2022/09/18 06:08:45;;;;;;;20.27;11.80;;;11.70;99.90;;;;;;10519668;28;20276;-83
2022/09/18 06:14:08;;;;;;;22.63;10.17;;;11.70;99.90;;;;;;10491411;28;20482;-85
2022/09/18 06:19:30;;;;;;;31.63;13.87;;;11.80;99.90;;;;;;10523530;28;20209;-82
2022/09/18 06:24:52;;;;;;;22.73;11.37;;;11.80;99.90;;;;;;10542124;28;20202;-85
2022/09/18 06:30:21;;;;;;;17.33;7.50;;;11.90;99.90;;;;;;10560192;28;20239;-79
2022/09/18 06:35:43;;;;;;;15.57;6.17;;;11.90;99.90;;;;;;10546767;28;20416;-84
2022/09/18 06:41:04;;;;;;;9.50;4.60;;;11.90;99.90;;;;;;10546774;28;20194;-84
2022/09/18 06:46:40;;;;;;;6.10;4.53;;;12.00;99.90;;;;;;10546020;28;20231;-84
2022/09/18 06:52:14;;;;;;;6.23;4.20;;;12.10;99.90;;;;;;10548276;28;20187;-81
2022/09/18 06:57:36;;;;;;;5.07;2.93;;;12.20;50.90;;;;;;10546775;28;20399;-83
2022/09/18 07:02:59;;;;;;;6.53;2.10;;;12.30;40.00;;;;;;10541800;28;20287;-84
2022/09/18 07:08:39;;;;;;;4.57;2.27;;;12.40;1.00;;;;;;10564067;28;20227;-83
2022/09/18 07:14:11;;;;;;;3.43;1.90;;;12.40;1.00;;;;;;10555000;28;20197;-80
2022/09/18 07:19:32;;;;;;;2.03;1.67;;;12.50;1.00;;;;;;10553404;28;20244;-79
2022/09/18 07:24:54;;;;;;;5.13;1.80;;;12.60;1.00;;;;;;10541011;28;20229;-80
2022/09/18 07:30:16;;;;;;;2.53;1.43;;;12.70;1.00;;;;;;10552507;28;20485;-80
2022/09/18 07:35:38;;;;;;;1.87;1.70;;;12.70;1.00;;;;;;10567458;28;20193;-81
2022/09/18 07:41:03;;;;;;;3.27;1.50;;;12.90;1.00;;;;;;10552621;28;20390;-80
2022/09/18 07:46:26;;;;;;;2.90;1.60;;;13.00;1.00;;;;;;10567060;28;20391;-80
2022/09/18 07:51:52;;;;;;;1.93;1.30;;;13.20;1.00;;;;;;10552222;28;20225;-85
2022/09/18 07:57:14;;;;;;;4.93;3.03;;;13.30;1.00;;;;;;10553309;28;20274;-82
2022/09/18 08:02:49;;;;;;;4.63;2.07;;;13.30;1.00;;;;;;10577188;28;20200;-83
2022/09/18 08:08:34;;;;;;;3.43;2.00;;;13.20;1.00;;;;;;10579269;28;20228;-81
2022/09/18 08:14:17;;;;;;;2.40;1.70;;;13.20;1.00;;;;;;10558792;28;20277;-80
2022/09/18 08:19:55;;;;;;;4.00;2.30;;;13.30;1.00;;;;;;10551120;28;20365;-83
2022/09/18 08:25:36;;;;;;;2.70;1.63;;;13.20;1.00;;;;;;10535916;28;20381;-85
2022/09/18 08:30:57;;;;;;;3.30;1.93;;;13.30;1.00;;;;;;10534308;28;20233;-81
2022/09/18 08:36:19;;;;;;;2.50;1.53;;;13.40;1.00;;;;;;10550595;28;20208;-80
2022/09/18 08:42:38;;;;;;;2.40;1.20;;;13.50;1.00;;;;;;10550146;28;20193;-82
2022/09/18 08:48:14;;;;;;;2.23;1.67;;;13.50;1.00;;;;;;10465092;28;20231;-80
2022/09/18 08:53:42;;;;;;;3.43;2.00;;;13.60;1.00;;;;;;10447717;28;20568;-85
2022/09/18 08:59:34;;;;;;;4.67;2.50;;;13.70;1.00;;;;;;10464178;28;20202;-80
2022/09/18 09:05:04;;;;;;;2.27;1.80;;;13.60;1.00;;;;;;10422813;28;20215;-86
2022/09/18 09:10:49;;;;;;;3.97;2.03;;;13.60;1.00;;;;;;10408488;28;20429;-81
2022/09/18 09:16:22;;;;;;;2.47;1.57;;;13.60;1.00;;;;;;10421967;28;20211;-81
2022/09/18 09:22:13;;;;;;;8.13;1.90;;;13.60;1.00;;;;;;10464606;28;20217;-81
2022/09/18 09:27:51;;;;;;;2.20;1.30;;;13.80;1.00;;;;;;10523119;28;20236;-83
2022/09/18 09:33:41;;;;;;;1.38;1.13;;;13.90;1.00;;;;;;10554253;28;20230;-80
2022/09/18 09:39:46;;;;;;;3.13;1.40;;;14.00;1.00;;;;;;10548036;28;20200;-81
2022/09/18 09:45:40;;;;;;;1.20;1.00;;;14.00;1.00;;;;;;10547682;28;20518;-81
2022/09/18 09:51:10;;;;;;;1.30;1.10;;;14.00;1.00;;;;;;10557367;28;20233;-82
2022/09/18 09:57:02;;;;;;;4.28;1.25;;;14.20;1.00;;;;;;10561556;28;20434;-82
2022/09/18 10:02:31;;;;;;;3.78;2.08;;;14.40;99.90;;;;;;10550613;28;20272;-82
2022/09/18 10:08:39;;;;;;;1.83;1.50;;;14.40;99.90;;;;;;10562806;28;20516;-81
2022/09/18 10:14:18;;;;;;;2.60;1.20;;;;;;;;;;10533491;28;20205;-81
2022/09/18 10:19:42;;;;;;;1.08;0.90;;;;;;;;;;10524578;28;20502;-81
2022/09/18 10:25:26;;;;;;;4.90;1.55;;;15.20;99.90;;;;;;10546470;28;20241;-84
2022/09/18 10:31:03;;;;;;;3.67;2.05;;;15.20;99.90;;;;;;10532554;28;20251;-81
2022/09/18 10:36:41;;;;;;;2.13;1.30;;;15.60;1.00;;;;;;10547240;28;20195;-82
2022/09/18 10:42:15;;;;;;;1.65;0.95;;;16.20;1.00;;;;;;10547490;28;20224;-82
2022/09/18 10:47:37;;;;;;;1.45;1.05;;;16.80;1.00;;;;;;10554512;28;20228;-81
2022/09/18 10:53:28;;;;;;;4.15;2.90;;;17.00;99.90;;;;;;10554986;28;20194;-81
2022/09/18 10:59:27;;;;;;;4.32;2.00;;;17.90;1.00;;;;;;10568330;28;20536;-80
2022/09/18 11:04:49;;;;;;;4.15;1.60;;;19.10;59.40;;;;;;10529182;28;20195;-82
2022/09/18 11:10:17;;;;;;;2.22;2.03;;;20.30;29.50;;;;;;10515241;28;20242;-82
2022/09/18 11:15:56;;;;;;;6.43;4.15;;;20.50;35.70;;;;;;10527150;28;20191;-82
2022/09/18 11:21:17;;;;;;;2.65;1.67;;;20.40;21.90;;;;;;10512624;28;20547;-83
2022/09/18 11:26:48;;;;;;;4.35;3.67;;;20.60;10.30;;;;;;10553353;28;20265;-82
2022/09/18 11:32:30;;;;;;;3.22;1.52;;;21.00;5.50;;;;;;10564348;28;20225;-81
2022/09/18 11:38:00;;;;;;;1.52;1.10;;;21.10;4.70;;;;;;10553563;28;20206;-83
2022/09/18 11:43:24;;;;;;;1.73;1.15;;;21.10;5.60;;;;;;10566779;28;20187;-82
2022/09/18 11:48:51;;;;;;;2.28;1.42;;;21.70;1.90;;;;;;10551606;28;20229;-84
2022/09/18 11:54:25;;;;;;;3.67;1.48;;;20.70;1.00;;;;;;10551501;28;20197;-81
2022/09/18 11:59:51;;;;;;;3.97;1.05;;;;;;;;;;10565765;28;20503;-81
2022/09/18 12:05:17;;;;;;;0.98;0.70;;;18.60;1.00;;;;;;10553813;28;20200;-83
2022/09/18 12:10:54;;;;;;;1.67;0.95;;;17.20;1.00;;;;;;10555423;28;20262;-80
2022/09/18 12:16:31;;;;;;;5.63;1.30;;;15.70;1.00;;;;;;10566979;28;20187;-82
2022/09/18 12:22:19;;;;;;;3.08;0.90;;;15.40;1.00;;;;;;10553057;28;20206;-81
2022/09/18 12:27:53;;;;;;;1.33;0.77;;;;;;;;;;10564971;28;20189;-82
2022/09/18 12:33:26;;;;;;;2.77;0.60;;;14.80;99.90;;;;;;10552134;28;20219;-80
2022/09/18 12:38:57;;;;;;;0.87;0.60;;;14.50;82.40;;;;;;10559303;28;20273;-81
2022/09/18 12:44:21;;;;;;;2.70;0.80;;;14.20;99.90;;;;;;10553965;28;20193;-80
2022/09/18 12:50:20;;;;;;;3.47;1.10;;;14.00;99.90;;;;;;10536100;28;20236;-81
2022/09/18 12:56:12;;;;;;;4.47;2.50;;;13.90;1.00;;;;;;10550201;28;20388;-85
2022/09/18 13:01:45;;;;;;;6.87;3.97;;;13.80;1.00;;;;;;10533302;28;20197;-81
2022/09/18 13:07:13;;;;;;;11.68;6.80;;;13.70;1.00;;;;;;10517463;28;20199;-81
2022/09/18 13:13:21;;;;;;;5.37;3.93;;;13.60;1.00;;;;;;10518726;28;20224;-82
2022/09/18 13:18:58;;;;;;;7.07;3.67;;;13.60;1.00;;;;;;10534229;28;20400;-83
2022/09/18 13:24:24;;;;;;;4.73;2.50;;;13.60;1.00;;;;;;10562463;28;20198;-81
2022/09/18 13:29:47;;;;;;;4.13;2.37;;;13.70;1.00;;;;;;10548139;28;20532;-82
2022/09/18 13:35:12;;;;;;;4.00;1.67;;;13.70;1.00;;;;;;10548554;28;20522;-85
2022/09/18 13:40:39;;;;;;;5.03;2.03;;;13.70;1.00;;;;;;10549142;28;20205;-83
2022/09/18 13:46:02;;;;;;;6.87;2.70;;;13.70;1.00;;;;;;10564980;28;20200;-83
2022/09/18 13:51:30;;;;;;;7.80;3.67;;;13.70;1.00;;;;;;10549907;28;20293;-82
2022/09/18 13:57:09;;;;;;;10.87;6.07;;;13.90;1.00;;;;;;10562317;28;20273;-85
2022/09/18 14:02:33;;;;;;;6.50;4.93;;;14.00;1.00;;;;;;10533091;28;20205;-87
2022/09/18 14:08:23;;;;;;;6.57;3.90;;;14.30;1.00;;;;;;10561493;28;20201;-84
2022/09/18 14:13:56;;;;;;;12.17;5.30;;;14.40;1.00;;;;;;10561268;28;20217;-83
2022/09/18 14:19:31;;;;;;;10.27;5.80;;;14.40;1.00;;;;;;10522076;28;20222;-87
2022/09/18 14:24:52;;;;;;;6.15;3.92;;;14.50;1.00;;;;;;10536020;28;20201;-84
2022/09/18 14:30:29;;;;;;;6.25;4.03;;;14.60;1.00;;;;;;10546321;28;20382;-87
2022/09/18 14:36:04;;;;;;;6.00;3.67;;;14.50;1.00;;;;;;10546887;28;20190;-82
2022/09/18 14:41:33;;;;;;;3.47;2.45;;;14.60;1.00;;;;;;10546299;28;20394;-85
2022/09/18 14:47:01;;;;;;;4.78;2.35;;;14.50;1.00;;;;;;10561283;28;20270;-81
2022/09/18 14:52:28;;;;;;;1.63;1.27;;;14.40;1.00;;;;;;10546540;28;20241;-82
2022/09/18 14:57:58;;;;;;;1.38;0.77;;;14.20;1.00;;;;;;10561378;28;20479;-81
2022/09/18 15:03:28;;;;;;;1.40;1.00;;;14.20;1.00;;;;;;10546124;28;20210;-81
2022/09/18 15:08:52;;;;;;;2.13;1.43;;;14.00;1.00;;;;;;10531924;28;20224;-82
2022/09/18 15:14:29;;;;;;;2.67;1.33;;;13.90;1.00;;;;;;10560194;28;20200;-86
2022/09/18 15:20:12;;;;;;;3.43;1.70;;;13.80;1.00;;;;;;10546632;28;20213;-82
2022/09/18 15:25:37;;;;;;;7.50;3.97;;;13.70;1.00;;;;;;10541406;28;20201;-81
2022/09/18 15:31:09;;;;;;;5.50;1.90;;;13.60;15.60;;;;;;10564799;28;20434;-84
2022/09/18 15:36:35;;;;;;;3.63;1.40;;;13.40;1.00;;;;;;10568060;28;20513;-81
2022/09/18 15:42:12;;;;;;;3.10;1.20;;;13.10;1.00;;;;;;10511966;28;20269;-82
2022/09/18 15:47:36;;;;;;;3.97;1.07;;;12.80;1.00;;;;;;10502901;28;20186;-84
2022/09/18 15:52:57;;;;;;;5.17;1.40;;;12.50;1.00;;;;;;10553079;28;20227;-82
2022/09/18 15:58:25;;;;;;;6.50;2.77;;;;;;;;;;10551881;28;20217;-80
2022/09/18 16:03:55;;;;;;;3.97;2.17;;;12.50;3.20;;;;;;10539550;28;20209;-85
2022/09/18 16:09:43;;;;;;;7.53;3.30;;;12.30;6.10;;;;;;10529593;28;20269;-83
2022/09/18 16:15:19;;;;;;;3.53;2.00;;;12.20;35.10;;;;;;10537413;28;20233;-85
2022/09/18 16:20:41;;;;;;;5.00;1.93;;;12.20;56.60;;;;;;10550769;28;20197;-82
2022/09/18 16:26:06;;;;;;;2.57;1.40;;;12.10;45.10;;;;;;10565234;28;20603;-84
2022/09/18 16:31:30;;;;;;;5.27;1.97;;;12.10;99.90;;;;;;10564673;28;20415;-80
2022/09/18 16:36:54;;;;;;;4.50;1.93;;;12.10;52.30;;;;;;10550792;28;20369;-87
2022/09/18 16:42:17;;;;;;;5.03;2.23;;;12.20;80.50;;;;;;10550214;28;20193;-84
2022/09/18 16:47:43;;;;;;;5.17;2.43;;;12.30;47.90;;;;;;10565479;28;20259;-84
2022/09/18 16:53:07;;;;;;;4.93;2.27;;;12.30;46.30;;;;;;10550864;28;20228;-84
2022/09/18 16:58:28;;;;;;;4.20;1.80;;;12.20;16.90;;;;;;10536136;28;20297;-82
2022/09/18 17:03:50;;;;;;;5.43;2.40;;;12.20;19.20;;;;;;10514974;28;20364;-83
2022/09/18 17:09:11;;;;;;;4.43;2.33;;;12.20;88.40;;;;;;10510105;28;20221;-81
2022/09/18 17:14:36;;;;;;;4.77;2.77;;;12.10;67.50;;;;;;10534575;28;20194;-80
2022/09/18 17:19:57;;;;;;;6.00;2.50;;;12.00;91.90;;;;;;10543144;28;20454;-85
2022/09/18 17:25:19;;;;;;;9.50;4.33;;;12.00;85.90;;;;;;10544569;28;20202;-80
2022/09/18 17:30:41;;;;;;;6.70;3.10;;;11.90;90.00;;;;;;10548277;28;20262;-81
2022/09/18 17:36:07;;;;;;;5.37;2.73;;;11.90;83.70;;;;;;10548802;28;20199;-82
2022/09/18 17:41:31;;;;;;;6.23;2.67;;;11.80;91.60;;;;;;10551394;28;20218;-81
2022/09/18 17:46:52;;;;;;;5.07;2.97;;;11.70;49.00;;;;;;10549360;28;20287;-81
2022/09/18 17:52:16;;;;;;;4.70;2.37;;;11.50;26.50;;;;;;10564360;28;20234;-80
2022/09/18 17:57:38;;;;;;;6.60;2.43;;;11.70;99.90;;;;;;10549818;28;20426;-83
2022/09/18 18:02:59;;;;;;;5.20;3.03;;;11.40;99.90;;;;;;10550901;28;20194;-85
2022/09/18 18:08:21;;;;;;;4.80;2.40;;;11.50;99.90;;;;;;10522400;28;20199;-82
2022/09/18 18:13:44;;;;;;;4.70;2.80;;;11.60;99.90;;;;;;10522647;28;20444;-87
2022/09/18 18:19:11;;;;;;;5.97;3.20;;;11.50;99.90;;;;;;10513956;28;20193;-81
2022/09/18 18:24:32;;;;;;;7.30;3.30;;;11.50;99.90;;;;;;10560666;28;20201;-84
2022/09/18 18:29:54;;;;;;;6.70;3.37;;;11.50;99.90;;;;;;10562669;28;20228;-81
2022/09/18 18:35:15;;;;;;;13.00;4.30;;;11.50;99.90;;;;;;10547516;28;20205;-82
2022/09/18 18:40:39;;;;;;;6.03;2.77;;;11.50;99.90;;;;;;10563799;28;20190;-82
2022/09/18 18:46:08;;;;;;;7.20;3.17;;;11.50;99.60;;;;;;10535588;28;20415;-80
2022/09/18 18:51:36;;;;;;;5.87;2.90;;;11.40;99.90;;;;;;10549164;28;20246;-79
2022/09/18 18:56:57;;;;;;;6.10;3.30;;;11.40;99.90;;;;;;10549075;28;20195;-80
2022/09/18 19:02:18;;;;;;;10.10;3.80;;;11.40;99.90;;;;;;10539791;28;20571;-79
2022/09/18 19:07:40;;;;;;;8.47;3.10;;;11.40;99.90;;;;;;10516377;28;20385;-79
2022/09/18 19:13:02;;;;;;;6.30;3.13;;;11.40;99.90;;;;;;10531254;28;20266;-81
2022/09/18 19:18:23;;;;;;;6.43;3.40;;;11.40;99.90;;;;;;10551017;28;20276;-84
2022/09/18 19:23:49;;;;;;;5.93;3.47;;;11.40;99.90;;;;;;10548397;28;20195;-81
2022/09/18 19:29:20;;;;;;;7.20;3.67;;;11.30;99.90;;;;;;10565570;28;20229;-82
2022/09/18 19:34:41;;;;;;;7.77;3.50;;;11.40;99.90;;;;;;10552687;28;20239;-81
2022/09/18 19:40:03;;;;;;;9.90;3.87;;;11.30;99.90;;;;;;10552783;28;20196;-83
2022/09/18 19:45:27;;;;;;;9.13;3.40;;;11.30;99.90;;;;;;10552611;28;20183;-82
2022/09/18 19:50:49;;;;;;;8.10;3.63;;;11.30;99.90;;;;;;10566676;28;20532;-84
2022/09/18 19:56:10;;;;;;;6.83;2.63;;;11.30;99.90;;;;;;10551935;28;20242;-82
2022/09/18 20:01:38;;;;;;;4.37;2.90;;;11.30;99.90;;;;;;10550361;28;20271;-84
2022/09/18 20:07:00;;;;;;;4.70;2.73;;;11.30;99.90;;;;;;10532014;28;20195;-79
2022/09/18 20:12:22;;;;;;;5.20;3.07;;;11.30;99.90;;;;;;10561431;28;20526;-80
2022/09/18 20:17:43;;;;;;;4.93;2.90;;;11.30;99.90;;;;;;10550829;28;20190;-82
2022/09/18 20:23:06;;;;;;;7.87;3.23;;;11.20;99.90;;;;;;10545247;28;20247;-84
2022/09/18 20:28:29;;;;;;;11.50;3.77;;;11.20;99.90;;;;;;10515729;28;20197;-82
2022/09/18 20:33:58;;;;;;;8.87;3.37;;;11.20;99.90;;;;;;10515098;28;20236;-79
2022/09/18 20:39:20;;;;;;;6.17;3.23;;;11.20;99.90;;;;;;10537391;28;20227;-81
2022/09/18 20:44:41;;;;;;;8.57;3.77;;;11.20;99.90;;;;;;10555272;28;20207;-80
2022/09/18 20:50:09;;;;;;;3.97;2.47;;;11.20;99.90;;;;;;10571602;28;20248;-82
2022/09/18 20:55:30;;;;;;;3.53;2.57;;;11.20;99.90;;;;;;10568893;28;20480;-82
2022/09/18 21:00:53;;;;;;;4.43;2.47;;;11.10;99.90;;;;;;10552840;28;20203;-82
2022/09/18 21:06:18;;;;;;;5.87;2.83;;;11.20;99.90;;;;;;10565057;28;20187;-81
2022/09/18 21:11:43;;;;;;;4.47;2.40;;;11.10;99.90;;;;;;10556195;28;20230;-82
2022/09/18 21:17:07;;;;;;;6.27;2.50;;;11.10;99.90;;;;;;10568764;28;20187;-83
2022/09/18 21:22:30;;;;;;;4.50;2.47;;;11.20;99.90;;;;;;10520760;28;20389;-84
2022/09/18 21:27:55;;;;;;;5.70;2.43;;;11.10;99.90;;;;;;10549436;28;20279;-84
2022/09/18 21:33:16;;;;;;;4.13;1.90;;;11.20;99.90;;;;;;10536696;28;20240;-81
2022/09/18 21:38:40;;;;;;;6.10;1.90;;;11.20;99.90;;;;;;10515711;28;20376;-81
2022/09/18 21:44:02;;;;;;;3.53;1.60;;;11.20;99.90;;;;;;10495663;28;20197;-81
2022/09/18 21:49:24;;;;;;;3.97;1.60;;;11.20;99.90;;;;;;10565620;28;20443;-81
2022/09/18 21:54:48;;;;;;;11.17;3.63;;;11.10;99.90;;;;;;10554137;28;20502;-79
2022/09/18 22:00:10;;;;;;;6.10;2.13;;;11.20;99.90;;;;;;10580624;28;20188;-81
2022/09/18 22:05:34;;;;;;;4.67;1.70;;;11.20;99.90;;;;;;10532304;28;20185;-81
2022/09/18 22:11:02;;;;;;;4.87;2.10;;;11.10;99.90;;;;;;10550557;28;20239;-82
2022/09/18 22:16:27;;;;;;;6.33;2.40;;;11.10;99.90;;;;;;10563098;28;20504;-80
2022/09/18 22:21:50;;;;;;;6.23;1.70;;;11.00;99.90;;;;;;10534106;28;20199;-82
2022/09/18 22:27:11;;;;;;;4.17;2.03;;;11.00;99.90;;;;;;10552419;28;20233;-82
2022/09/18 22:32:33;;;;;;;7.60;1.90;;;10.90;99.90;;;;;;10549596;28;20256;-82
2022/09/18 22:37:54;;;;;;;5.17;1.67;;;10.80;99.90;;;;;;10566712;28;20269;-85
2022/09/18 22:43:15;;;;;;;8.10;2.43;;;10.80;99.90;;;;;;10574873;28;20200;-81
2022/09/18 22:48:38;;;;;;;7.63;1.73;;;10.80;99.90;;;;;;10560411;28;20195;-82
2022/09/18 22:54:03;;;;;;;5.13;1.87;;;10.80;99.90;;;;;;10574747;28;20214;-81
2022/09/18 22:59:26;;;;;;;5.40;1.63;;;10.80;99.90;;;;;;10575322;28;20245;-81
2022/09/18 23:04:47;;;;;;;7.60;2.17;;;10.80;99.90;;;;;;10518204;28;20202;-82
2022/09/18 23:10:09;;;;;;;6.37;1.60;;;10.70;99.90;;;;;;10531869;28;20229;-81
2022/09/18 23:15:30;;;;;;;4.30;2.17;;;10.70;99.90;;;;;;10523333;28;20374;-82
2022/09/18 23:20:51;;;;;;;5.33;2.23;;;10.70;99.90;;;;;;10569573;28;20194;-82
2022/09/18 23:26:22;;;;;;;4.73;1.50;;;10.70;99.90;;;;;;10558837;28;20194;-81
2022/09/18 23:31:45;;;;;;;3.27;1.53;;;10.50;99.90;;;;;;10559472;28;20241;-81
2022/09/18 23:37:06;;;;;;;4.77;2.00;;;10.60;99.90;;;;;;10573646;28;20375;-81
2022/09/18 23:42:27;;;;;;;4.00;1.70;;;10.60;99.90;;;;;;10558877;28;20288;-81
2022/09/18 23:47:49;;;;;;;6.63;1.10;;;10.60;99.90;;;;;;10558451;28;20217;-81
2022/09/18 23:53:10;;;;;;;4.73;1.60;;;10.60;99.90;;;;;;10537636;28;20222;-81
2022/09/18 23:58:32;;;;;;;3.83;1.30;;;10.60;99.90;;;;;;10566393;28;20185;-81
